sensor_id;sensor_type;location;lat;lon;timestamp;P1;durP1;ratioP1;P2;durP2;ratioP2
6334;SDS011;3200;48.204;11.576;2024-03-08T00:02:03;28.92;;;16.23;;
6334;SDS011;3200;48.204;11.576;2024-03-08T00:04:29;29.58;;;15.77;;
6334;SDS011;3200;48.204;11.576;2024-03-08T00:06:55;29.92;;;16.30;;
6334;SDS011;3200;48.204;11.576;2024-03-08T00:09:23;30.83;;;16.45;;
6334;SDS011;3200;48.204;11.576;2024-03-08T00:11:49;28.80;;;16.00;;
6334;SDS011;3200;48.204;11.576;2024-03-08T00:14:15;28.38;;;15.38;;
6334;SDS011;3200;48.204;11.576;2024-03-08T00:16:41;27.17;;;16.33;;
6334;SDS011;3200;48.204;11.576;2024-03-08T00:19:08;27.55;;;16.75;;
6334;SDS011;3200;48.204;11.576;2024-03-08T00:21:35;30.50;;;16.42;;
6334;SDS011;3200;48.204;11.576;2024-03-08T00:24:01;28.85;;;16.55;;
6334;SDS011;3200;48.204;11.576;2024-03-08T00:26:27;28.73;;;16.75;;
6334;SDS011;3200;48.204;11.576;2024-03-08T00:28:55;26.42;;;15.45;;
6334;SDS011;3200;48.204;11.576;2024-03-08T00:31:21;29.55;;;16.67;;
6334;SDS011;3200;48.204;11.576;2024-03-08T00:33:46;25.67;;;15.67;;
6334;SDS011;3200;48.204;11.576;2024-03-08T00:36:12;29.57;;;16.10;;
6334;SDS011;3200;48.204;11.576;2024-03-08T00:38:38;30.03;;;17.10;;
6334;SDS011;3200;48.204;11.576;2024-03-08T00:41:04;27.63;;;16.95;;
6334;SDS011;3200;48.204;11.576;2024-03-08T00:43:30;27.60;;;15.37;;
6334;SDS011;3200;48.204;11.576;2024-03-08T00:45:56;26.77;;;15.93;;
6334;SDS011;3200;48.204;11.576;2024-03-08T00:48:22;24.80;;;14.38;;
6334;SDS011;3200;48.204;11.576;2024-03-08T00:50:49;24.38;;;14.63;;
6334;SDS011;3200;48.204;11.576;2024-03-08T00:53:15;27.67;;;15.70;;
6334;SDS011;3200;48.204;11.576;2024-03-08T00:55:41;30.65;;;16.33;;
6334;SDS011;3200;48.204;11.576;2024-03-08T00:58:07;23.87;;;14.40;;
6334;SDS011;3200;48.204;11.576;2024-03-08T01:00:34;30.38;;;15.88;;
6334;SDS011;3200;48.204;11.576;2024-03-08T01:03:00;23.85;;;13.93;;
6334;SDS011;3200;48.204;11.576;2024-03-08T01:05:26;29.97;;;16.43;;
6334;SDS011;3200;48.204;11.576;2024-03-08T01:07:52;27.97;;;16.07;;
6334;SDS011;3200;48.204;11.576;2024-03-08T01:10:17;27.07;;;15.00;;
6334;SDS011;3200;48.204;11.576;2024-03-08T01:12:43;24.35;;;16.10;;
6334;SDS011;3200;48.204;11.576;2024-03-08T01:15:10;25.75;;;15.82;;
6334;SDS011;3200;48.204;11.576;2024-03-08T01:17:36;27.90;;;16.08;;
6334;SDS011;3200;48.204;11.576;2024-03-08T01:20:03;27.35;;;16.13;;
6334;SDS011;3200;48.204;11.576;2024-03-08T01:22:30;29.20;;;17.77;;
6334;SDS011;3200;48.204;11.576;2024-03-08T01:24:56;35.38;;;16.80;;
6334;SDS011;3200;48.204;11.576;2024-03-08T01:27:22;25.02;;;15.13;;
6334;SDS011;3200;48.204;11.576;2024-03-08T01:29:49;24.83;;;14.88;;
6334;SDS011;3200;48.204;11.576;2024-03-08T01:32:18;30.08;;;16.55;;
6334;SDS011;3200;48.204;11.576;2024-03-08T01:34:44;28.00;;;14.97;;
6334;SDS011;3200;48.204;11.576;2024-03-08T01:37:10;39.70;;;20.75;;
6334;SDS011;3200;48.204;11.576;2024-03-08T01:39:36;27.90;;;15.50;;
6334;SDS011;3200;48.204;11.576;2024-03-08T01:42:02;29.98;;;16.13;;
6334;SDS011;3200;48.204;11.576;2024-03-08T01:44:28;27.00;;;15.73;;
6334;SDS011;3200;48.204;11.576;2024-03-08T01:46:55;28.48;;;17.08;;
6334;SDS011;3200;48.204;11.576;2024-03-08T01:49:21;28.23;;;16.05;;
6334;SDS011;3200;48.204;11.576;2024-03-08T01:51:48;27.58;;;15.02;;
6334;SDS011;3200;48.204;11.576;2024-03-08T01:54:15;31.80;;;18.20;;
6334;SDS011;3200;48.204;11.576;2024-03-08T01:56:44;29.98;;;16.58;;
6334;SDS011;3200;48.204;11.576;2024-03-08T01:59:11;26.50;;;15.23;;
6334;SDS011;3200;48.204;11.576;2024-03-08T02:01:39;29.45;;;16.73;;
6334;SDS011;3200;48.204;11.576;2024-03-08T02:04:06;29.38;;;17.88;;
6334;SDS011;3200;48.204;11.576;2024-03-08T02:06:32;28.60;;;16.70;;
6334;SDS011;3200;48.204;11.576;2024-03-08T02:08:58;32.35;;;17.52;;
6334;SDS011;3200;48.204;11.576;2024-03-08T02:11:25;26.88;;;15.80;;
6334;SDS011;3200;48.204;11.576;2024-03-08T02:13:51;32.30;;;17.70;;
6334;SDS011;3200;48.204;11.576;2024-03-08T02:16:21;28.52;;;16.58;;
6334;SDS011;3200;48.204;11.576;2024-03-08T02:18:47;28.95;;;17.70;;
6334;SDS011;3200;48.204;11.576;2024-03-08T02:21:17;30.20;;;17.30;;
6334;SDS011;3200;48.204;11.576;2024-03-08T02:23:43;32.80;;;16.55;;
6334;SDS011;3200;48.204;11.576;2024-03-08T02:26:09;29.40;;;17.35;;
6334;SDS011;3200;48.204;11.576;2024-03-08T02:28:36;29.58;;;17.17;;
6334;SDS011;3200;48.204;11.576;2024-03-08T02:31:03;27.38;;;16.73;;
6334;SDS011;3200;48.204;11.576;2024-03-08T02:33:33;32.38;;;17.15;;
6334;SDS011;3200;48.204;11.576;2024-03-08T02:36:00;33.50;;;18.77;;
6334;SDS011;3200;48.204;11.576;2024-03-08T02:38:26;31.10;;;17.87;;
6334;SDS011;3200;48.204;11.576;2024-03-08T02:40:52;27.40;;;16.52;;
6334;SDS011;3200;48.204;11.576;2024-03-08T02:43:19;29.80;;;17.20;;
6334;SDS011;3200;48.204;11.576;2024-03-08T02:45:49;28.45;;;16.25;;
6334;SDS011;3200;48.204;11.576;2024-03-08T02:48:17;31.50;;;17.13;;
6334;SDS011;3200;48.204;11.576;2024-03-08T02:50:43;30.52;;;17.17;;
6334;SDS011;3200;48.204;11.576;2024-03-08T02:53:10;31.20;;;16.85;;
6334;SDS011;3200;48.204;11.576;2024-03-08T02:55:40;32.97;;;17.83;;
6334;SDS011;3200;48.204;11.576;2024-03-08T02:58:07;31.63;;;17.45;;
6334;SDS011;3200;48.204;11.576;2024-03-08T03:00:35;30.50;;;16.48;;
6334;SDS011;3200;48.204;11.576;2024-03-08T03:03:01;34.70;;;17.98;;
6334;SDS011;3200;48.204;11.576;2024-03-08T03:05:28;31.52;;;18.23;;
6334;SDS011;3200;48.204;11.576;2024-03-08T03:07:55;34.20;;;18.55;;
6334;SDS011;3200;48.204;11.576;2024-03-08T03:10:23;31.75;;;17.52;;
6334;SDS011;3200;48.204;11.576;2024-03-08T03:12:49;37.20;;;19.70;;
6334;SDS011;3200;48.204;11.576;2024-03-08T03:15:15;29.23;;;16.58;;
6334;SDS011;3200;48.204;11.576;2024-03-08T03:17:45;36.33;;;18.40;;
6334;SDS011;3200;48.204;11.576;2024-03-08T03:20:18;37.50;;;17.45;;
6334;SDS011;3200;48.204;11.576;2024-03-08T03:22:51;35.13;;;16.50;;
6334;SDS011;3200;48.204;11.576;2024-03-08T03:25:20;32.83;;;18.42;;
6334;SDS011;3200;48.204;11.576;2024-03-08T03:27:58;29.90;;;17.42;;
6334;SDS011;3200;48.204;11.576;2024-03-08T03:30:24;27.30;;;17.13;;
6334;SDS011;3200;48.204;11.576;2024-03-08T03:32:51;34.97;;;18.85;;
6334;SDS011;3200;48.204;11.576;2024-03-08T03:35:19;33.15;;;17.67;;
6334;SDS011;3200;48.204;11.576;2024-03-08T03:37:47;38.20;;;18.48;;
6334;SDS011;3200;48.204;11.576;2024-03-08T03:40:29;32.38;;;16.90;;
6334;SDS011;3200;48.204;11.576;2024-03-08T03:42:56;37.15;;;18.92;;
6334;SDS011;3200;48.204;11.576;2024-03-08T03:45:22;36.55;;;18.35;;
6334;SDS011;3200;48.204;11.576;2024-03-08T03:47:51;33.42;;;19.20;;
6334;SDS011;3200;48.204;11.576;2024-03-08T03:50:18;35.67;;;20.45;;
6334;SDS011;3200;48.204;11.576;2024-03-08T03:52:47;37.17;;;19.60;;
6334;SDS011;3200;48.204;11.576;2024-03-08T03:55:13;31.20;;;17.13;;
6334;SDS011;3200;48.204;11.576;2024-03-08T03:57:40;30.27;;;17.48;;
6334;SDS011;3200;48.204;11.576;2024-03-08T04:00:06;30.30;;;17.00;;
6334;SDS011;3200;48.204;11.576;2024-03-08T04:02:39;37.97;;;18.77;;
6334;SDS011;3200;48.204;11.576;2024-03-08T04:05:09;32.95;;;18.73;;
6334;SDS011;3200;48.204;11.576;2024-03-08T04:07:37;37.38;;;19.83;;
6334;SDS011;3200;48.204;11.576;2024-03-08T04:10:04;33.95;;;18.33;;
6334;SDS011;3200;48.204;11.576;2024-03-08T04:12:35;31.77;;;17.40;;
6334;SDS011;3200;48.204;11.576;2024-03-08T04:15:01;35.50;;;19.13;;
6334;SDS011;3200;48.204;11.576;2024-03-08T04:17:27;37.75;;;19.05;;
6334;SDS011;3200;48.204;11.576;2024-03-08T04:19:53;42.63;;;19.70;;
6334;SDS011;3200;48.204;11.576;2024-03-08T04:22:19;34.53;;;18.80;;
6334;SDS011;3200;48.204;11.576;2024-03-08T04:24:45;38.20;;;19.85;;
6334;SDS011;3200;48.204;11.576;2024-03-08T04:27:12;35.85;;;18.33;;
6334;SDS011;3200;48.204;11.576;2024-03-08T04:29:39;34.35;;;17.95;;
6334;SDS011;3200;48.204;11.576;2024-03-08T04:32:06;38.10;;;20.45;;
6334;SDS011;3200;48.204;11.576;2024-03-08T04:34:33;37.85;;;21.42;;
6334;SDS011;3200;48.204;11.576;2024-03-08T04:37:00;32.30;;;20.45;;
6334;SDS011;3200;48.204;11.576;2024-03-08T04:39:27;38.85;;;20.40;;
6334;SDS011;3200;48.204;11.576;2024-03-08T04:42:02;35.47;;;20.38;;
6334;SDS011;3200;48.204;11.576;2024-03-08T04:44:31;35.05;;;19.80;;
6334;SDS011;3200;48.204;11.576;2024-03-08T04:46:58;38.60;;;20.83;;
6334;SDS011;3200;48.204;11.576;2024-03-08T04:49:25;38.78;;;20.05;;
6334;SDS011;3200;48.204;11.576;2024-03-08T04:51:51;34.80;;;18.37;;
6334;SDS011;3200;48.204;11.576;2024-03-08T04:54:16;33.20;;;19.70;;
6334;SDS011;3200;48.204;11.576;2024-03-08T04:56:42;34.93;;;19.03;;
6334;SDS011;3200;48.204;11.576;2024-03-08T04:59:08;37.70;;;21.53;;
6334;SDS011;3200;48.204;11.576;2024-03-08T05:01:34;38.10;;;21.07;;
6334;SDS011;3200;48.204;11.576;2024-03-08T05:04:03;35.88;;;20.83;;
6334;SDS011;3200;48.204;11.576;2024-03-08T05:06:30;36.20;;;19.80;;
6334;SDS011;3200;48.204;11.576;2024-03-08T05:08:56;39.60;;;20.87;;
6334;SDS011;3200;48.204;11.576;2024-03-08T05:11:22;38.13;;;20.13;;
6334;SDS011;3200;48.204;11.576;2024-03-08T05:13:48;33.20;;;17.80;;
6334;SDS011;3200;48.204;11.576;2024-03-08T05:16:13;36.33;;;20.03;;
6334;SDS011;3200;48.204;11.576;2024-03-08T05:18:40;40.13;;;21.10;;
6334;SDS011;3200;48.204;11.576;2024-03-08T05:21:07;37.13;;;19.27;;
6334;SDS011;3200;48.204;11.576;2024-03-08T05:23:34;35.55;;;19.65;;
6334;SDS011;3200;48.204;11.576;2024-03-08T05:26:00;40.25;;;20.98;;
6334;SDS011;3200;48.204;11.576;2024-03-08T05:28:26;37.90;;;19.33;;
6334;SDS011;3200;48.204;11.576;2024-03-08T05:30:52;39.30;;;21.30;;
6334;SDS011;3200;48.204;11.576;2024-03-08T05:33:17;33.00;;;19.30;;
6334;SDS011;3200;48.204;11.576;2024-03-08T05:35:44;33.85;;;19.20;;
6334;SDS011;3200;48.204;11.576;2024-03-08T05:38:10;34.28;;;19.13;;
6334;SDS011;3200;48.204;11.576;2024-03-08T05:40:37;33.08;;;17.98;;
6334;SDS011;3200;48.204;11.576;2024-03-08T05:43:03;34.23;;;18.10;;
6334;SDS011;3200;48.204;11.576;2024-03-08T05:45:30;33.35;;;18.50;;
6334;SDS011;3200;48.204;11.576;2024-03-08T05:47:56;32.73;;;19.70;;
6334;SDS011;3200;48.204;11.576;2024-03-08T05:50:22;36.50;;;19.50;;
6334;SDS011;3200;48.204;11.576;2024-03-08T05:52:47;36.40;;;19.80;;
6334;SDS011;3200;48.204;11.576;2024-03-08T05:55:13;32.13;;;19.40;;
6334;SDS011;3200;48.204;11.576;2024-03-08T05:57:39;37.50;;;20.17;;
6334;SDS011;3200;48.204;11.576;2024-03-08T06:00:07;34.97;;;19.08;;
6334;SDS011;3200;48.204;11.576;2024-03-08T06:02:40;38.70;;;18.98;;
6334;SDS011;3200;48.204;11.576;2024-03-08T06:05:10;33.38;;;20.40;;
6334;SDS011;3200;48.204;11.576;2024-03-08T06:07:36;43.08;;;19.45;;
6334;SDS011;3200;48.204;11.576;2024-03-08T06:10:06;34.55;;;19.33;;
6334;SDS011;3200;48.204;11.576;2024-03-08T06:12:37;36.90;;;19.38;;
6334;SDS011;3200;48.204;11.576;2024-03-08T06:15:07;34.95;;;18.65;;
6334;SDS011;3200;48.204;11.576;2024-03-08T06:17:35;31.58;;;18.15;;
6334;SDS011;3200;48.204;11.576;2024-03-08T06:20:02;34.00;;;19.15;;
6334;SDS011;3200;48.204;11.576;2024-03-08T06:22:36;32.55;;;17.83;;
6334;SDS011;3200;48.204;11.576;2024-03-08T06:25:05;32.42;;;18.48;;
6334;SDS011;3200;48.204;11.576;2024-03-08T06:27:36;35.60;;;18.95;;
6334;SDS011;3200;48.204;11.576;2024-03-08T06:30:02;36.40;;;17.97;;
6334;SDS011;3200;48.204;11.576;2024-03-08T06:32:29;31.75;;;17.80;;
6334;SDS011;3200;48.204;11.576;2024-03-08T06:34:59;32.20;;;17.13;;
6334;SDS011;3200;48.204;11.576;2024-03-08T06:37:25;30.53;;;17.63;;
6334;SDS011;3200;48.204;11.576;2024-03-08T06:39:51;32.70;;;20.10;;
6334;SDS011;3200;48.204;11.576;2024-03-08T06:42:19;37.35;;;19.48;;
6334;SDS011;3200;48.204;11.576;2024-03-08T06:44:45;33.07;;;18.70;;
6334;SDS011;3200;48.204;11.576;2024-03-08T06:47:15;36.30;;;19.55;;
6334;SDS011;3200;48.204;11.576;2024-03-08T06:49:44;27.60;;;16.58;;
6334;SDS011;3200;48.204;11.576;2024-03-08T06:52:10;33.75;;;18.77;;
6334;SDS011;3200;48.204;11.576;2024-03-08T06:54:36;29.57;;;16.90;;
6334;SDS011;3200;48.204;11.576;2024-03-08T06:57:03;33.03;;;18.65;;
6334;SDS011;3200;48.204;11.576;2024-03-08T06:59:30;31.75;;;17.35;;
6334;SDS011;3200;48.204;11.576;2024-03-08T07:01:56;28.88;;;15.95;;
6334;SDS011;3200;48.204;11.576;2024-03-08T07:04:24;31.90;;;17.92;;
6334;SDS011;3200;48.204;11.576;2024-03-08T07:06:54;39.83;;;20.48;;
6334;SDS011;3200;48.204;11.576;2024-03-08T07:09:23;27.77;;;16.70;;
6334;SDS011;3200;48.204;11.576;2024-03-08T07:11:50;33.35;;;18.60;;
6334;SDS011;3200;48.204;11.576;2024-03-08T07:14:22;34.80;;;19.52;;
6334;SDS011;3200;48.204;11.576;2024-03-08T07:16:49;35.20;;;19.30;;
6334;SDS011;3200;48.204;11.576;2024-03-08T07:19:16;29.55;;;16.77;;
6334;SDS011;3200;48.204;11.576;2024-03-08T07:21:45;31.13;;;17.20;;
6334;SDS011;3200;48.204;11.576;2024-03-08T07:24:12;38.75;;;17.60;;
6334;SDS011;3200;48.204;11.576;2024-03-08T07:26:42;30.98;;;16.50;;
6334;SDS011;3200;48.204;11.576;2024-03-08T07:29:09;30.23;;;16.17;;
6334;SDS011;3200;48.204;11.576;2024-03-08T07:31:35;38.97;;;18.92;;
6334;SDS011;3200;48.204;11.576;2024-03-08T07:34:07;29.55;;;16.23;;
6334;SDS011;3200;48.204;11.576;2024-03-08T07:36:33;28.60;;;16.47;;
6334;SDS011;3200;48.204;11.576;2024-03-08T07:39:02;29.63;;;16.52;;
6334;SDS011;3200;48.204;11.576;2024-03-08T07:41:30;34.60;;;18.73;;
6334;SDS011;3200;48.204;11.576;2024-03-08T07:43:56;30.93;;;17.63;;
6334;SDS011;3200;48.204;11.576;2024-03-08T07:46:22;33.83;;;17.70;;
6334;SDS011;3200;48.204;11.576;2024-03-08T07:48:48;31.75;;;18.30;;
6334;SDS011;3200;48.204;11.576;2024-03-08T07:51:16;34.00;;;17.97;;
6334;SDS011;3200;48.204;11.576;2024-03-08T07:53:45;29.38;;;17.42;;
6334;SDS011;3200;48.204;11.576;2024-03-08T07:56:11;32.97;;;19.07;;
6334;SDS011;3200;48.204;11.576;2024-03-08T07:58:38;35.25;;;17.38;;
6334;SDS011;3200;48.204;11.576;2024-03-08T08:01:08;31.83;;;16.85;;
6334;SDS011;3200;48.204;11.576;2024-03-08T08:03:41;27.80;;;15.50;;
6334;SDS011;3200;48.204;11.576;2024-03-08T08:06:07;29.43;;;17.20;;
6334;SDS011;3200;48.204;11.576;2024-03-08T08:08:33;32.63;;;18.13;;
6334;SDS011;3200;48.204;11.576;2024-03-08T08:10:59;29.50;;;18.67;;
6334;SDS011;3200;48.204;11.576;2024-03-08T08:13:26;29.02;;;16.52;;
6334;SDS011;3200;48.204;11.576;2024-03-08T08:15:53;32.00;;;17.25;;
6334;SDS011;3200;48.204;11.576;2024-03-08T08:18:18;32.67;;;16.60;;
6334;SDS011;3200;48.204;11.576;2024-03-08T08:20:46;29.42;;;16.92;;
6334;SDS011;3200;48.204;11.576;2024-03-08T08:23:12;27.60;;;15.77;;
6334;SDS011;3200;48.204;11.576;2024-03-08T08:25:38;30.80;;;17.20;;
6334;SDS011;3200;48.204;11.576;2024-03-08T08:28:04;28.23;;;16.90;;
6334;SDS011;3200;48.204;11.576;2024-03-08T08:30:31;29.85;;;17.90;;
6334;SDS011;3200;48.204;11.576;2024-03-08T08:33:00;30.17;;;16.02;;
6334;SDS011;3200;48.204;11.576;2024-03-08T08:35:26;32.90;;;18.47;;
6334;SDS011;3200;48.204;11.576;2024-03-08T08:37:53;31.58;;;17.42;;
6334;SDS011;3200;48.204;11.576;2024-03-08T08:40:19;31.50;;;17.33;;
6334;SDS011;3200;48.204;11.576;2024-03-08T08:42:44;27.27;;;15.60;;
6334;SDS011;3200;48.204;11.576;2024-03-08T08:45:10;26.63;;;15.50;;
6334;SDS011;3200;48.204;11.576;2024-03-08T08:47:37;30.95;;;17.85;;
6334;SDS011;3200;48.204;11.576;2024-03-08T08:50:03;34.73;;;18.43;;
6334;SDS011;3200;48.204;11.576;2024-03-08T08:52:33;26.45;;;15.43;;
6334;SDS011;3200;48.204;11.576;2024-03-08T08:54:59;27.52;;;15.70;;
6334;SDS011;3200;48.204;11.576;2024-03-08T08:57:25;27.47;;;16.07;;
6334;SDS011;3200;48.204;11.576;2024-03-08T08:59:53;27.88;;;16.10;;
6334;SDS011;3200;48.204;11.576;2024-03-08T09:02:18;24.40;;;14.83;;
6334;SDS011;3200;48.204;11.576;2024-03-08T09:04:46;26.45;;;17.45;;
6334;SDS011;3200;48.204;11.576;2024-03-08T09:07:13;23.98;;;16.15;;
6334;SDS011;3200;48.204;11.576;2024-03-08T09:09:41;31.25;;;17.17;;
6334;SDS011;3200;48.204;11.576;2024-03-08T09:12:07;27.08;;;16.10;;
6334;SDS011;3200;48.204;11.576;2024-03-08T09:14:33;30.90;;;17.77;;
6334;SDS011;3200;48.204;11.576;2024-03-08T09:16:59;28.83;;;15.98;;
6334;SDS011;3200;48.204;11.576;2024-03-08T09:19:25;28.02;;;17.00;;
6334;SDS011;3200;48.204;11.576;2024-03-08T09:21:51;27.43;;;16.37;;
6334;SDS011;3200;48.204;11.576;2024-03-08T09:24:17;29.07;;;16.70;;
6334;SDS011;3200;48.204;11.576;2024-03-08T09:26:43;25.80;;;15.20;;
6334;SDS011;3200;48.204;11.576;2024-03-08T09:29:09;29.90;;;16.40;;
6334;SDS011;3200;48.204;11.576;2024-03-08T09:31:35;28.70;;;15.35;;
6334;SDS011;3200;48.204;11.576;2024-03-08T09:34:03;21.15;;;14.48;;
6334;SDS011;3200;48.204;11.576;2024-03-08T09:36:29;30.02;;;16.60;;
6334;SDS011;3200;48.204;11.576;2024-03-08T09:38:57;27.30;;;15.68;;
6334;SDS011;3200;48.204;11.576;2024-03-08T09:41:29;31.57;;;16.63;;
6334;SDS011;3200;48.204;11.576;2024-03-08T09:43:56;27.67;;;15.48;;
6334;SDS011;3200;48.204;11.576;2024-03-08T09:46:24;28.42;;;17.02;;
6334;SDS011;3200;48.204;11.576;2024-03-08T09:48:52;27.92;;;16.95;;
6334;SDS011;3200;48.204;11.576;2024-03-08T09:51:21;24.40;;;15.65;;
6334;SDS011;3200;48.204;11.576;2024-03-08T09:53:53;27.33;;;15.85;;
6334;SDS011;3200;48.204;11.576;2024-03-08T09:56:22;25.93;;;15.30;;
6334;SDS011;3200;48.204;11.576;2024-03-08T09:58:50;29.88;;;15.55;;
6334;SDS011;3200;48.204;11.576;2024-03-08T10:01:33;25.05;;;15.02;;
6334;SDS011;3200;48.204;11.576;2024-03-08T10:03:58;24.60;;;15.47;;
6334;SDS011;3200;48.204;11.576;2024-03-08T10:06:24;26.47;;;15.03;;
6334;SDS011;3200;48.204;11.576;2024-03-08T10:08:50;28.33;;;16.33;;
6334;SDS011;3200;48.204;11.576;2024-03-08T10:11:20;26.65;;;14.50;;
6334;SDS011;3200;48.204;11.576;2024-03-08T10:13:47;23.50;;;14.57;;
6334;SDS011;3200;48.204;11.576;2024-03-08T10:16:33;26.25;;;15.80;;
6334;SDS011;3200;48.204;11.576;2024-03-08T10:19:00;27.08;;;14.90;;
6334;SDS011;3200;48.204;11.576;2024-03-08T10:21:26;26.80;;;15.27;;
6334;SDS011;3200;48.204;11.576;2024-03-08T10:23:52;33.78;;;16.20;;
6334;SDS011;3200;48.204;11.576;2024-03-08T10:26:18;26.58;;;15.55;;
6334;SDS011;3200;48.204;11.576;2024-03-08T10:28:47;25.05;;;14.85;;
6334;SDS011;3200;48.204;11.576;2024-03-08T10:31:14;29.58;;;16.67;;
6334;SDS011;3200;48.204;11.576;2024-03-08T10:33:41;27.50;;;16.35;;
6334;SDS011;3200;48.204;11.576;2024-03-08T10:36:07;22.90;;;14.52;;
6334;SDS011;3200;48.204;11.576;2024-03-08T10:45:34;27.95;;;14.80;;
6334;SDS011;3200;48.204;11.576;2024-03-08T10:50:48;22.33;;;14.32;;
6334;SDS011;3200;48.204;11.576;2024-03-08T10:53:15;25.48;;;15.32;;
6334;SDS011;3200;48.204;11.576;2024-03-08T10:55:46;26.13;;;15.98;;
6334;SDS011;3200;48.204;11.576;2024-03-08T10:58:13;28.92;;;16.90;;
6334;SDS011;3200;48.204;11.576;2024-03-08T11:00:40;26.50;;;15.15;;
6334;SDS011;3200;48.204;11.576;2024-03-08T11:06:18;27.38;;;16.88;;
6334;SDS011;3200;48.204;11.576;2024-03-08T11:16:10;22.02;;;11.95;;
6334;SDS011;3200;48.204;11.576;2024-03-08T11:19:23;23.40;;;14.57;;
6334;SDS011;3200;48.204;11.576;2024-03-08T11:25:03;20.95;;;14.25;;
6334;SDS011;3200;48.204;11.576;2024-03-08T11:27:35;20.77;;;12.57;;
6334;SDS011;3200;48.204;11.576;2024-03-08T11:30:05;19.13;;;12.40;;
6334;SDS011;3200;48.204;11.576;2024-03-08T11:35:37;19.17;;;12.20;;
6334;SDS011;3200;48.204;11.576;2024-03-08T11:38:07;22.40;;;13.48;;
6334;SDS011;3200;48.204;11.576;2024-03-08T11:40:34;21.83;;;13.15;;
6334;SDS011;3200;48.204;11.576;2024-03-08T11:43:01;21.70;;;12.13;;
6334;SDS011;3200;48.204;11.576;2024-03-08T11:45:53;22.63;;;12.32;;
6334;SDS011;3200;48.204;11.576;2024-03-08T11:49:13;22.48;;;12.20;;
6334;SDS011;3200;48.204;11.576;2024-03-08T11:51:39;21.50;;;12.15;;
6334;SDS011;3200;48.204;11.576;2024-03-08T11:54:12;27.00;;;13.60;;
6334;SDS011;3200;48.204;11.576;2024-03-08T11:56:38;21.83;;;12.75;;
6334;SDS011;3200;48.204;11.576;2024-03-08T11:59:18;22.30;;;13.32;;
6334;SDS011;3200;48.204;11.576;2024-03-08T12:01:56;21.50;;;12.70;;
6334;SDS011;3200;48.204;11.576;2024-03-08T12:04:30;20.75;;;13.60;;
6334;SDS011;3200;48.204;11.576;2024-03-08T12:07:00;18.98;;;12.55;;
6334;SDS011;3200;48.204;11.576;2024-03-08T12:09:27;22.25;;;14.30;;
6334;SDS011;3200;48.204;11.576;2024-03-08T12:15:04;21.98;;;13.30;;
6334;SDS011;3200;48.204;11.576;2024-03-08T12:17:41;24.35;;;13.40;;
6334;SDS011;3200;48.204;11.576;2024-03-08T12:20:19;23.13;;;13.73;;
6334;SDS011;3200;48.204;11.576;2024-03-08T12:22:59;23.40;;;13.43;;
6334;SDS011;3200;48.204;11.576;2024-03-08T12:25:32;20.40;;;12.80;;
6334;SDS011;3200;48.204;11.576;2024-03-08T12:28:12;22.83;;;13.48;;
6334;SDS011;3200;48.204;11.576;2024-03-08T12:30:46;20.58;;;13.35;;
6334;SDS011;3200;48.204;11.576;2024-03-08T12:33:49;26.45;;;15.80;;
6334;SDS011;3200;48.204;11.576;2024-03-08T12:36:18;25.77;;;15.52;;
6334;SDS011;3200;48.204;11.576;2024-03-08T12:38:48;29.50;;;19.80;;
6334;SDS011;3200;48.204;11.576;2024-03-08T12:41:21;22.00;;;13.43;;
6334;SDS011;3200;48.204;11.576;2024-03-08T12:43:49;22.33;;;12.68;;
6334;SDS011;3200;48.204;11.576;2024-03-08T12:46:16;24.23;;;14.32;;
6334;SDS011;3200;48.204;11.576;2024-03-08T12:48:46;21.20;;;12.48;;
6334;SDS011;3200;48.204;11.576;2024-03-08T12:54:07;23.05;;;13.70;;
6334;SDS011;3200;48.204;11.576;2024-03-08T13:03:45;21.83;;;12.68;;
6334;SDS011;3200;48.204;11.576;2024-03-08T13:07:06;20.95;;;13.23;;
6334;SDS011;3200;48.204;11.576;2024-03-08T13:09:41;24.05;;;14.57;;
6334;SDS011;3200;48.204;11.576;2024-03-08T13:12:19;24.05;;;12.88;;
6334;SDS011;3200;48.204;11.576;2024-03-08T13:14:45;24.33;;;15.00;;
6334;SDS011;3200;48.204;11.576;2024-03-08T13:17:19;22.20;;;14.20;;
6334;SDS011;3200;48.204;11.576;2024-03-08T13:20:09;23.63;;;14.27;;
6334;SDS011;3200;48.204;11.576;2024-03-08T13:22:41;21.30;;;12.82;;
6334;SDS011;3200;48.204;11.576;2024-03-08T13:25:12;18.38;;;12.88;;
6334;SDS011;3200;48.204;11.576;2024-03-08T13:27:41;22.23;;;13.00;;
6334;SDS011;3200;48.204;11.576;2024-03-08T13:30:10;24.33;;;14.10;;
6334;SDS011;3200;48.204;11.576;2024-03-08T13:32:56;21.08;;;13.40;;
6334;SDS011;3200;48.204;11.576;2024-03-08T13:35:43;18.48;;;11.82;;
6334;SDS011;3200;48.204;11.576;2024-03-08T13:38:12;20.65;;;13.13;;
6334;SDS011;3200;48.204;11.576;2024-03-08T13:40:41;22.20;;;13.43;;
6334;SDS011;3200;48.204;11.576;2024-03-08T13:43:09;22.38;;;12.63;;
6334;SDS011;3200;48.204;11.576;2024-03-08T13:45:47;22.40;;;14.27;;
6334;SDS011;3200;48.204;11.576;2024-03-08T13:48:14;19.40;;;12.80;;
6334;SDS011;3200;48.204;11.576;2024-03-08T13:50:41;22.35;;;13.25;;
6334;SDS011;3200;48.204;11.576;2024-03-08T13:56:49;18.23;;;12.35;;
6334;SDS011;3200;48.204;11.576;2024-03-08T13:59:22;20.42;;;11.55;;
6334;SDS011;3200;48.204;11.576;2024-03-08T14:02:31;19.10;;;11.50;;
6334;SDS011;3200;48.204;11.576;2024-03-08T14:04:57;16.67;;;10.77;;
6334;SDS011;3200;48.204;11.576;2024-03-08T14:07:28;20.75;;;12.55;;
6334;SDS011;3200;48.204;11.576;2024-03-08T14:09:58;23.00;;;12.55;;
6334;SDS011;3200;48.204;11.576;2024-03-08T14:12:24;18.33;;;12.63;;
6334;SDS011;3200;48.204;11.576;2024-03-08T14:14:51;20.20;;;11.10;;
6334;SDS011;3200;48.204;11.576;2024-03-08T14:17:24;18.85;;;12.93;;
6334;SDS011;3200;48.204;11.576;2024-03-08T14:20:22;18.02;;;12.02;;
6334;SDS011;3200;48.204;11.576;2024-03-08T14:22:50;19.85;;;12.63;;
6334;SDS011;3200;48.204;11.576;2024-03-08T14:25:39;21.55;;;12.98;;
6334;SDS011;3200;48.204;11.576;2024-03-08T14:28:08;25.40;;;15.27;;
6334;SDS011;3200;48.204;11.576;2024-03-08T14:30:37;22.75;;;14.23;;
6334;SDS011;3200;48.204;11.576;2024-03-08T14:33:04;19.97;;;12.13;;
6334;SDS011;3200;48.204;11.576;2024-03-08T14:35:39;21.17;;;13.55;;
6334;SDS011;3200;48.204;11.576;2024-03-08T14:38:09;21.15;;;13.35;;
6334;SDS011;3200;48.204;11.576;2024-03-08T14:40:36;20.55;;;13.02;;
6334;SDS011;3200;48.204;11.576;2024-03-08T14:43:13;24.88;;;13.40;;
6334;SDS011;3200;48.204;11.576;2024-03-08T14:46:02;23.50;;;14.57;;
6334;SDS011;3200;48.204;11.576;2024-03-08T14:48:58;20.45;;;13.15;;
6334;SDS011;3200;48.204;11.576;2024-03-08T14:51:24;24.20;;;14.80;;
6334;SDS011;3200;48.204;11.576;2024-03-08T14:53:56;22.17;;;13.70;;
6334;SDS011;3200;48.204;11.576;2024-03-08T14:56:31;26.67;;;14.20;;
6334;SDS011;3200;48.204;11.576;2024-03-08T14:59:23;21.77;;;13.48;;
6334;SDS011;3200;48.204;11.576;2024-03-08T15:02:08;21.70;;;14.13;;
6334;SDS011;3200;48.204;11.576;2024-03-08T15:04:35;21.15;;;14.77;;
6334;SDS011;3200;48.204;11.576;2024-03-08T15:07:01;23.83;;;13.57;;
6334;SDS011;3200;48.204;11.576;2024-03-08T15:09:48;19.95;;;13.40;;
6334;SDS011;3200;48.204;11.576;2024-03-08T15:12:14;21.97;;;13.63;;
6334;SDS011;3200;48.204;11.576;2024-03-08T15:14:43;20.85;;;13.60;;
6334;SDS011;3200;48.204;11.576;2024-03-08T15:17:09;21.35;;;14.60;;
6334;SDS011;3200;48.204;11.576;2024-03-08T15:20:03;22.42;;;15.32;;
6334;SDS011;3200;48.204;11.576;2024-03-08T15:22:31;20.38;;;13.85;;
6334;SDS011;3200;48.204;11.576;2024-03-08T15:24:57;21.92;;;14.40;;
6334;SDS011;3200;48.204;11.576;2024-03-08T15:27:26;20.63;;;14.67;;
6334;SDS011;3200;48.204;11.576;2024-03-08T15:30:13;21.10;;;13.60;;